Map

Track Data

SID SEASON NUMBER BASIN SUBBASIN NAME ISO_TIME NATURE LAT LON WMO_WIND WMO_PRES WMO_AGENCY TRACK_TYPE DIST2LAND LANDFALL IFLAG USA_AGENCY USA_ATCF_ID USA_LAT USA_LON USA_RECORD USA_STATUS USA_WIND USA_PRES USA_SSHS USA_R34_NE USA_R34_SE USA_R34_SW USA_R34_NW USA_R50_NE USA_R50_SE USA_R50_SW USA_R50_NW USA_R64_NE USA_R64_SE USA_R64_SW USA_R64_NW USA_POCI USA_ROCI USA_RMW USA_EYE TOKYO_LAT TOKYO_LON TOKYO_GRADE TOKYO_WIND TOKYO_PRES TOKYO_R50_DIR TOKYO_R50_LONG TOKYO_R50_SHORT TOKYO_R30_DIR TOKYO_R30_LONG TOKYO_R30_SHORT TOKYO_LAND CMA_LAT CMA_LON CMA_CAT CMA_WIND CMA_PRES HKO_LAT HKO_LON HKO_CAT HKO_WIND HKO_PRES NEWDELHI_LAT NEWDELHI_LON NEWDELHI_GRADE NEWDELHI_WIND NEWDELHI_PRES NEWDELHI_CI NEWDELHI_DP NEWDELHI_POCI REUNION_LAT REUNION_LON REUNION_TYPE REUNION_WIND REUNION_PRES REUNION_TNUM REUNION_CI REUNION_RMW REUNION_R34_NE REUNION_R34_SE REUNION_R34_SW REUNION_R34_NW REUNION_R50_NE REUNION_R50_SE REUNION_R50_SW REUNION_R50_NW REUNION_R64_NE REUNION_R64_SE REUNION_R64_SW REUNION_R64_NW BOM_LAT BOM_LON BOM_TYPE BOM_WIND BOM_PRES BOM_TNUM BOM_CI BOM_RMW BOM_R34_NE BOM_R34_SE BOM_R34_SW BOM_R34_NW BOM_R50_NE BOM_R50_SE BOM_R50_SW BOM_R50_NW BOM_R64_NE BOM_R64_SE BOM_R64_SW BOM_R64_NW BOM_ROCI BOM_POCI BOM_EYE BOM_POS_METHOD BOM_PRES_METHOD NADI_LAT NADI_LON NADI_CAT NADI_WIND NADI_PRES WELLINGTON_LAT WELLINGTON_LON WELLINGTON_WIND WELLINGTON_PRES DS824_LAT DS824_LON DS824_STAGE DS824_WIND DS824_PRES TD9636_LAT TD9636_LON TD9636_STAGE TD9636_WIND TD9636_PRES TD9635_LAT TD9635_LON TD9635_WIND TD9635_PRES TD9635_ROCI NEUMANN_LAT NEUMANN_LON NEUMANN_CLASS NEUMANN_WIND NEUMANN_PRES MLC_LAT MLC_LON MLC_CLASS MLC_WIND MLC_PRES USA_GUST BOM_GUST BOM_GUST_PER REUNION_GUST REUNION_GUST_PER USA_SEAHGT USA_SEARAD_NE USA_SEARAD_SE USA_SEARAD_SW USA_SEARAD_NW STORM_SPEED STORM_DIR
2003262N17254 2003 75 EP MM MARTY 2003-09-18 18:00:00 TS 16.5000 -105.700 25 1004 hurdat_epa main 308 307 O_____________ hurdat_epa EP132003 16.5000 -105.700 TD 25 1004 -1 1011 150 30 7 300
2003262N17254 2003 75 EP MM MARTY 2003-09-18 21:00:00 TS 16.6726 -106.005 main 307 306 P_____________ EP132003 16.6726 -106.005 TD 27 1003 -1 1008 165 30 6 298
2003262N17254 2003 75 EP MM MARTY 2003-09-19 00:00:00 TS 16.8000 -106.300 30 1002 hurdat_epa main 311 311 O_____________ hurdat_epa EP132003 16.8000 -106.300 TD 30 1002 -1 1006 180 30 6 289
2003262N17254 2003 75 EP MM MARTY 2003-09-19 03:00:00 TS 16.8575 -106.573 main 320 320 P_____________ EP132003 16.8575 -106.573 TD 32 1001 -1 1006 180 30 5 282
2003262N17254 2003 75 EP MM MARTY 2003-09-19 06:00:00 TS 16.9000 -106.800 35 1000 hurdat_epa main 333 331 O_____________ hurdat_epa EP132003 16.9000 -106.800 TS 35 1000 0 100 100 100 100 1006 180 30 4 289
2003262N17254 2003 75 EP MM MARTY 2003-09-19 09:00:00 TS 16.9925 -106.980 main 338 338 P_____________ EP132003 16.9925 -106.980 TS 35 999 0 100 100 100 100 1006 180 30 4 305
2003262N17254 2003 75 EP MM MARTY 2003-09-19 12:00:00 TS 17.1000 -107.100 35 999 hurdat_epa main 338 330 O_____________ hurdat_epa EP132003 17.1000 -107.100 TS 35 999 0 100 100 100 100 1006 180 30 3 319
2003262N17254 2003 75 EP MM MARTY 2003-09-19 15:00:00 TS 17.2000 -107.165 main 337 330 P_____________ EP132003 17.2000 -107.165 TS 37 998 0 100 100 100 100 1006 180 30 2 333
2003262N17254 2003 75 EP MM MARTY 2003-09-19 18:00:00 TS 17.3000 -107.200 40 998 hurdat_epa main 330 322 O_____________ hurdat_epa EP132003 17.3000 -107.200 TS 40 998 0 100 100 100 100 1006 180 30 2 340
2003262N17254 2003 75 EP MM MARTY 2003-09-19 21:00:00 TS 17.4000 -107.243 main 322 322 P_____________ EP132003 17.4000 -107.243 TS 40 998 0 100 100 100 100 1006 180 30 2 333
2003262N17254 2003 75 EP MM MARTY 2003-09-20 00:00:00 TS 17.5000 -107.300 40 998 hurdat_epa main 322 315 O_____________ hurdat_epa EP132003 17.5000 -107.300 TS 40 998 0 100 100 100 100 1006 180 30 2 325
2003262N17254 2003 75 EP MM MARTY 2003-09-20 03:00:00 TS 17.5925 -107.378 main 322 314 P_____________ EP132003 17.5925 -107.378 TS 42 997 0 100 100 100 100 1005 180 30 3 316
2003262N17254 2003 75 EP MM MARTY 2003-09-20 06:00:00 TS 17.7000 -107.500 45 997 hurdat_epa main 322 322 O_____________ hurdat_epa EP132003 17.7000 -107.500 TS 45 997 0 100 100 100 100 1005 180 30 4 310
2003262N17254 2003 75 EP MM MARTY 2003-09-20 09:00:00 TS 17.8425 -107.685 main 330 323 P_____________ EP132003 17.8425 -107.685 TS 45 997 0 100 100 100 100 1005 165 30 5 308
2003262N17254 2003 75 EP MM MARTY 2003-09-20 12:00:00 TS 18.0000 -107.900 45 997 hurdat_epa main 333 333 O_____________ hurdat_epa EP132003 18.0000 -107.900 TS 45 997 0 100 100 100 100 1005 150 30 5 307
2003262N17254 2003 75 EP MM MARTY 2003-09-20 15:00:00 TS 18.1500 -108.108 main 338 338 P_____________ EP132003 18.1500 -108.108 TS 50 995 0 100 100 125 100 1005 150 27 5 308
2003262N17254 2003 75 EP MM MARTY 2003-09-20 18:00:00 TS 18.3000 -108.300 55 994 hurdat_epa main 350 350 O_____________ hurdat_epa EP132003 18.3000 -108.300 TS 55 994 0 100 100 150 100 1005 150 25 5 311
2003262N17254 2003 75 EP MM MARTY 2003-09-20 21:00:00 TS 18.4500 -108.465 main 362 356 P_____________ EP132003 18.4500 -108.465 TS 60 990 0 100 100 150 100 1005 150 25 4 317
2003262N17254 2003 75 EP MM MARTY 2003-09-21 00:00:00 TS 18.6000 -108.600 65 987 hurdat_epa main 361 356 O_____________ hurdat_epa EP132003 18.6000 -108.600 HU 65 987 1 100 100 150 100 1005 150 25 4 322
2003262N17254 2003 75 EP MM MARTY 2003-09-21 03:00:00 TS 18.7425 -108.700 main 365 361 P_____________ EP132003 18.7425 -108.700 HU 65 987 1 95 87 137 87 1005 162 22 4 328
2003262N17254 2003 75 EP MM MARTY 2003-09-21 06:00:00 TS 18.9000 -108.800 65 987 hurdat_epa main 365 365 O_____________ hurdat_epa EP132003 18.9000 -108.800 HU 65 987 1 90 75 125 75 1005 175 20 4 324
2003262N17254 2003 75 EP MM MARTY 2003-09-21 09:00:00 TS 19.0625 -108.943 main 365 365 P_____________ EP132003 19.0625 -108.943 HU 65 987 1 90 75 125 75 1005 175 20 5 325
2003262N17254 2003 75 EP MM MARTY 2003-09-21 12:00:00 TS 19.3000 -109.100 65 987 hurdat_epa main 376 372 O_____________ hurdat_epa EP132003 19.3000 -109.100 HU 65 987 1 90 75 125 75 1005 175 20 7 333
2003262N17254 2003 75 EP MM MARTY 2003-09-21 15:00:00 TS 19.6625 -109.265 main 361 315 P_____________ EP132003 19.6625 -109.265 HU 65 987 1 95 100 125 75 1005 175 20 9 341
2003262N17254 2003 75 EP MM MARTY 2003-09-21 18:00:00 TS 20.1000 -109.400 65 987 hurdat_epa main 315 270 O_____________ hurdat_epa EP132003 20.1000 -109.400 HU 65 987 1 100 125 125 75 1005 175 20 9 348
2003262N17254 2003 75 EP MM MARTY 2003-09-21 21:00:00 TS 20.5350 -109.465 main 270 214 P_____________ EP132003 20.5350 -109.465 HU 70 983 1 100 125 125 75 1005 175 20 9 354
2003262N17254 2003 75 EP MM MARTY 2003-09-22 00:00:00 TS 21.0000 -109.500 75 980 hurdat_epa main 214 170 O_____________ hurdat_epa EP132003 21.0000 -109.500 HU 75 980 1 100 125 125 75 1005 175 20 9 356
2003262N17254 2003 75 EP MM MARTY 2003-09-22 03:00:00 TS 21.4242 -109.543 main 170 102 P_____________ EP132003 21.4242 -109.543 HU 80 975 1 100 125 125 75 1005 175 17 10 354
2003262N17254 2003 75 EP MM MARTY 2003-09-22 06:00:00 TS 22.0000 -109.600 85 970 hurdat_epa main 102 15 O_____________ hurdat_epa EP132003 22.0000 -109.600 HU 85 970 2 100 125 125 75 1005 175 15 14 355
2003262N17254 2003 75 EP MM MARTY 2003-09-22 09:00:00 TS 22.8524 -109.674 main 10 0 P_____________ EP132003 22.8524 -109.674 HU 85 970 2 100 125 87 62 1005 175 15 17 355
2003262N17254 2003 75 EP MM MARTY 2003-09-22 09:30:00 TS 23.0000 -109.700 85 970 hurdat_epa main 0 0 V_____________ hurdat_epa EP132003 23.0000 -109.700 L HU 85 970 2 100 125 81 60 1005 175 15 18 346
2003262N17254 2003 75 EP MM MARTY 2003-09-22 12:00:00 TS 23.7000 -109.900 80 971 hurdat_epa main 0 0 O_____________ hurdat_epa EP132003 23.7000 -109.900 HU 80 971 1 100 125 50 50 1005 175 15 18 341
2003262N17254 2003 75 EP MM MARTY 2003-09-22 15:00:00 TS 24.5545 -110.298 main 33 20 P_____________ EP132003 24.5545 -110.298 HU 75 975 1 100 137 50 37 1006 162 15 19 334
2003262N17254 2003 75 EP MM MARTY 2003-09-22 18:00:00 TS 25.4000 -110.800 70 980 hurdat_epa main 20 9 O_____________ hurdat_epa EP132003 25.4000 -110.800 HU 70 980 1 100 150 50 25 1007 150 15 19 331
2003262N17254 2003 75 EP MM MARTY 2003-09-22 21:00:00 TS 26.2301 -111.315 main 9 0 P_____________ EP132003 26.2301 -111.315 HU 65 982 1 87 125 45 25 1007 150 17 18 331
2003262N17254 2003 75 EP MM MARTY 2003-09-23 00:00:00 TS 27.0000 -111.800 60 985 hurdat_epa main 19 9 O_____________ hurdat_epa EP132003 27.0000 -111.800 TS 60 985 0 75 100 40 25 1007 150 20 17 332
2003262N17254 2003 75 EP MM MARTY 2003-09-23 03:00:00 TS 27.6872 -112.173 main 22 22 P_____________ EP132003 27.6872 -112.173 TS 55 989 0 75 87 35 50 1007 150 20 14 335
2003262N17254 2003 75 EP MM MARTY 2003-09-23 06:00:00 TS 28.3000 -112.500 50 993 hurdat_epa main 31 19 O_____________ hurdat_epa EP132003 28.3000 -112.500 TS 50 993 0 75 75 30 75 1007 150 20 14 333
2003262N17254 2003 75 EP MM MARTY 2003-09-23 09:00:00 TS 28.9101 -112.880 main 36 36 P_____________ EP132003 28.9101 -112.880 TS 42 996 0 87 75 27 87 1007 150 22 13 331
2003262N17254 2003 75 EP MM MARTY 2003-09-23 12:00:00 TS 29.4000 -113.200 35 999 hurdat_epa main 40 36 O_____________ hurdat_epa EP132003 29.4000 -113.200 TS 35 999 0 100 75 25 100 1007 150 25 9 330
2003262N17254 2003 75 EP MM MARTY 2003-09-23 15:00:00 TS 29.6873 -113.388 main 48 48 P_____________ EP132003 29.6873 -113.388 TS 32 1000 -1 1007 150 27 6 332
2003262N17254 2003 75 EP MM MARTY 2003-09-23 18:00:00 TS 29.9000 -113.500 30 1002 hurdat_epa main 59 59 O_____________ hurdat_epa EP132003 29.9000 -113.500 TD 30 1002 -1 1007 150 30 6 338
2003262N17254 2003 75 EP MM MARTY 2003-09-23 21:00:00 TS 30.2150 -113.637 main 70 61 P_____________ EP132003 30.2150 -113.637 TD 30 1002 -1 1007 150 30 6 344
2003262N17254 2003 75 EP MM MARTY 2003-09-24 00:00:00 TS 30.5000 -113.700 30 1003 hurdat_epa main 61 47 O_____________ hurdat_epa EP132003 30.5000 -113.700 TD 30 1003 -1 1007 150 30 5 3
2003262N17254 2003 75 EP MM MARTY 2003-09-24 03:00:00 TS 30.6725 -113.630 main 47 38 P_____________ EP132003 30.6725 -113.630 TD 30 1003 -1 1007 120 27 3 30
2003262N17254 2003 75 EP MM MARTY 2003-09-24 06:00:00 TS 30.8000 -113.500 30 1004 hurdat_epa main 38 28 O_____________ hurdat_epa EP132003 30.8000 -113.500 TD 30 1004 -1 1008 90 25 4 41
2003262N17254 2003 75 EP MM MARTY 2003-09-24 09:00:00 TS 30.9425 -113.363 main 28 19 P_____________ EP132003 30.9425 -113.363 TD 27 1005 -1 1008 90 25 3 30
2003262N17254 2003 75 EP MM MARTY 2003-09-24 12:00:00 TS 31.1000 -113.300 25 1007 hurdat_epa main 19 0 O_____________ hurdat_epa EP132003 31.1000 -113.300 TD 25 1007 -1 1009 90 25 4 355
2003262N17254 2003 75 EP MM MARTY 2003-09-24 15:00:00 TS 31.3225 -113.397 main 0 0 P_____________ EP132003 31.3225 -113.397 TD 22 1007 -1 5 327
2003262N17254 2003 75 EP MM MARTY 2003-09-24 18:00:00 TS 31.5000 -113.600 20 1007 hurdat_epa main 0 0 O_____________ hurdat_epa EP132003 31.5000 -113.600 TD 20 1007 -1 5 301
2003262N17254 2003 75 EP MM MARTY 2003-09-24 21:00:00 TS 31.5602 -113.865 main 9 0 P_____________ EP132003 31.5602 -113.865 TD 20 1007 -1 4 270
2003262N17254 2003 75 EP MM MARTY 2003-09-25 00:00:00 DS 31.5000 -114.100 20 1007 hurdat_epa main 0 0 O_____________ hurdat_epa EP132003 31.5000 -114.100 LO 20 1007 -3 4 229
2003262N17254 2003 75 EP MM MARTY 2003-09-25 03:00:00 DS 31.3299 -114.180 main 22 22 P_____________ EP132003 31.3299 -114.180 LO 20 1007 -3 4 192
2003262N17254 2003 75 EP MM MARTY 2003-09-25 06:00:00 DS 31.1000 -114.200 20 1008 hurdat_epa main 44 44 O_____________ hurdat_epa EP132003 31.1000 -114.200 LO 20 1008 -3 4 188
2003262N17254 2003 75 EP MM MARTY 2003-09-25 09:00:00 DS 30.9075 -114.242 main 47 36 P_____________ EP132003 30.9075 -114.242 LO 20 1009 -3 4 192
2003262N17254 2003 75 EP MM MARTY 2003-09-25 12:00:00 DS 30.7000 -114.300 20 1010 hurdat_epa main 36 19 O_____________ hurdat_epa EP132003 30.7000 -114.300 LO 20 1010 -3 5 196
2003262N17254 2003 75 EP MM MARTY 2003-09-25 15:00:00 DS 30.4425 -114.393 main 22 19 P_____________ EP132003 30.4425 -114.393 LO 20 1011 -3 5 199
2003262N17254 2003 75 EP MM MARTY 2003-09-25 18:00:00 DS 30.2000 -114.500 20 1012 hurdat_epa main 19 0 O_____________ hurdat_epa EP132003 30.2000 -114.500 LO 20 1012 -3 5 204
2003262N17254 2003 75 EP MM MARTY 2003-09-25 21:00:00 DS 30.0275 -114.602 main 0 0 P_____________ EP132003 30.0275 -114.602 LO 20 1012 -3 3 210
2003262N17254 2003 75 EP MM MARTY 2003-09-26 00:00:00 DS 29.9000 -114.700 20 1012 hurdat_epa main 0 O_____________ hurdat_epa EP132003 29.9000 -114.700 LO 20 1012 -3 3 214

About IBTrACS Database

This database is a web-friendly format of International Best Track Archive for Climate Stewardship (IBTrACS), a global best track data archive curated by NOAA dating back to 1842.

Updated: 2021-10-08